createdAt,value
2024-03-05T00:02:47.791Z,94033.45
2024-03-05T00:06:19.777Z,94032.60
2024-03-05T00:09:43.738Z,94036.19
2024-03-05T00:13:31.348Z,94035.92
2024-03-05T00:17:20.443Z,94033.52
2024-03-05T00:21:09.662Z,94030.34
2024-03-05T00:24:57.513Z,94032.69
2024-03-05T00:28:12.361Z,94029.58
2024-03-05T00:31:29.699Z,94028.73
2024-03-05T00:35:00.283Z,94028.89
2024-03-05T00:38:15.076Z,94027.57
2024-03-05T00:42:07.598Z,94022.68
2024-03-05T00:45:32.907Z,94023.42
2024-03-05T00:49:04.818Z,94021.90
2024-03-05T00:52:34.003Z,94022.45
2024-03-05T00:56:17.409Z,94026.18
2024-03-05T00:59:31.697Z,94023.75
2024-03-05T01:03:01.560Z,94020.08
2024-03-05T01:06:43.194Z,94019.04
2024-03-05T01:10:12.272Z,94020.91
2024-03-05T01:13:55.250Z,94017.74
2024-03-05T01:17:20.141Z,94017.39
2024-03-05T01:21:01.942Z,94026.20
2024-03-05T01:24:04.438Z,94027.30
2024-03-05T01:27:23.509Z,94028.52
2024-03-05T01:30:42.362Z,94023.23
2024-03-05T01:33:48.118Z,94030.06
2024-03-05T01:37:19.590Z,94030.11
2024-03-05T01:40:26.161Z,94024.73
2024-03-05T01:43:31.381Z,94024.98
2024-03-05T01:47:18.458Z,94027.41
2024-03-05T01:50:23.912Z,94018.52
2024-03-05T01:54:02.879Z,94019.23
2024-03-05T01:57:45.680Z,94016.39
2024-03-05T02:01:08.578Z,94021.29
2024-03-05T02:04:24.888Z,94021.19
2024-03-05T02:08:06.910Z,94019.10
2024-03-05T02:11:59.447Z,94021.17
2024-03-05T02:15:14.783Z,94022.64
2024-03-05T02:18:38.726Z,94018.27
2024-03-05T02:22:03.662Z,94019.30
2024-03-05T02:25:52.945Z,94017.91
2024-03-05T02:29:42.122Z,94017.94
2024-03-05T02:33:13.903Z,94018.05
2024-03-05T02:36:35.624Z,94018.08
2024-03-05T02:40:24.886Z,94018.93
2024-03-05T02:44:06.982Z,94022.89
2024-03-05T02:47:38.801Z,94025.27
2024-03-05T02:51:28.039Z,94022.52
2024-03-05T02:54:58.509Z,94025.45
2024-03-05T02:58:47.708Z,94027.48
2024-03-05T03:02:09.195Z,94025.38
2024-03-05T03:05:43.856Z,94024.58
2024-03-05T03:08:41.872Z,94025.38
2024-03-05T03:12:16.381Z,94027.88
2024-03-05T03:15:47.130Z,94022.70
2024-03-05T03:18:54.773Z,94022.80
2024-03-05T03:22:04.005Z,94024.63
2024-03-05T03:25:24.786Z,94026.80
2024-03-05T03:29:13.977Z,94025.63
2024-03-05T03:32:56.008Z,94020.90
2024-03-05T03:35:57.752Z,94020.89
2024-03-05T03:39:22.492Z,94021.49
2024-03-05T03:42:28.467Z,94026.30
2024-03-05T03:45:47.491Z,94027.67
2024-03-05T03:49:39.366Z,94027.60
2024-03-05T03:52:59.500Z,94030.34
2024-03-05T03:56:19.420Z,94033.27
2024-03-05T03:59:48.552Z,94035.40
2024-03-05T04:03:20.697Z,94033.12
2024-03-05T04:06:52.272Z,94036.25
2024-03-05T04:10:24.496Z,94038.77
2024-03-05T04:13:44.794Z,94035.99
2024-03-05T04:17:09.749Z,94042.69
2024-03-05T04:20:28.576Z,94037.71
2024-03-05T04:23:52.638Z,94037.59
2024-03-05T04:26:49.169Z,94037.25
2024-03-05T04:30:13.843Z,94035.65
2024-03-05T04:33:43.231Z,94037.94
2024-03-05T04:36:59.602Z,94042.64
2024-03-05T04:40:31.815Z,94037.24
2024-03-05T04:44:05.520Z,94038.66
2024-03-05T04:47:20.471Z,94042.45
2024-03-05T04:51:09.645Z,94041.19
2024-03-05T04:54:45.410Z,94043.20
2024-03-05T04:58:23.359Z,94048.10
2024-03-05T05:01:52.351Z,94044.86
2024-03-05T05:05:41.414Z,94046.86
2024-03-05T05:09:02.133Z,94043.45
2024-03-05T05:12:24.241Z,94047.17
2024-03-05T05:15:36.083Z,94044.21
2024-03-05T05:19:10.157Z,94048.11
2024-03-05T05:22:44.830Z,94048.42
2024-03-05T05:26:07.945Z,94050.44
2024-03-05T05:29:31.803Z,94051.09
2024-03-05T05:33:29.237Z,94050.27
2024-03-05T05:36:40.441Z,94053.54
2024-03-05T05:39:59.561Z,94054.49
2024-03-05T05:43:31.644Z,94056.01
2024-03-05T05:46:53.246Z,94060.95
2024-03-05T05:50:14.962Z,94059.20
2024-03-05T05:53:20.209Z,94063.51
2024-03-05T05:56:30.521Z,94065.46
2024-03-05T05:59:46.770Z,94064.02
2024-03-05T06:02:51.057Z,94064.56
2024-03-05T06:06:36.243Z,94067.42
2024-03-05T06:10:18.390Z,94064.94
2024-03-05T06:14:02.435Z,94065.13
2024-03-05T06:17:42.636Z,94068.29
2024-03-05T06:21:03.866Z,94064.95
2024-03-05T06:24:53.342Z,94062.19
2024-03-05T06:28:35.974Z,94067.52
2024-03-05T06:32:08.208Z,94077.49
2024-03-05T06:35:38.994Z,94075.35
2024-03-05T06:39:29.150Z,94075.13
2024-03-05T06:42:35.763Z,94070.23
2024-03-05T06:45:52.857Z,94070.96
2024-03-05T06:49:03.811Z,94069.98
2024-03-05T06:52:24.878Z,94072.56
2024-03-05T06:55:55.919Z,94069.56
2024-03-05T06:59:06.452Z,94067.50
2024-03-05T07:02:04.394Z,94065.48
2024-03-05T07:04:36.606Z,94065.36
2024-03-05T07:07:10.297Z,94063.71
2024-03-05T07:09:44.338Z,94058.02
2024-03-05T07:12:14.475Z,94063.83
2024-03-05T07:15:07.145Z,94061.70
2024-03-05T07:18:27.122Z,94069.48
2024-03-05T07:21:13.104Z,94068.71
2024-03-05T07:23:47.574Z,94073.83
2024-03-05T07:26:33.761Z,94077.38
2024-03-05T07:29:32.724Z,94078.05
2024-03-05T07:32:36.958Z,94077.33
2024-03-05T07:35:09.830Z,94075.83
2024-03-05T07:37:38.492Z,94073.90
2024-03-05T07:40:22.083Z,94073.79
2024-03-05T07:43:05.062Z,94074.22
2024-03-05T07:46:01.372Z,94073.44
2024-03-05T07:48:59.970Z,94075.89
2024-03-05T07:51:41.069Z,94072.02
2024-03-05T07:55:14.702Z,94075.99
2024-03-05T07:58:17.474Z,94077.76
2024-03-05T08:00:51.888Z,94080.56
2024-03-05T08:03:55.837Z,94073.91
2024-03-05T08:06:32.014Z,94071.55
2024-03-05T08:09:13.335Z,94075.35
2024-03-05T08:12:05.053Z,94073.69
2024-03-05T08:14:59.371Z,94073.25
2024-03-05T08:18:02.325Z,94072.54
2024-03-05T08:21:37.265Z,94077.61
2024-03-05T08:24:56.378Z,94075.36
2024-03-05T08:27:39.961Z,94072.25
2024-03-05T08:30:41.942Z,94071.53
2024-03-05T08:33:30.314Z,94072.77
2024-03-05T08:36:32.053Z,94069.96
2024-03-05T08:39:20.918Z,94066.23
2024-03-05T08:41:49.623Z,94068.42
2024-03-05T08:44:36.408Z,94062.04
2024-03-05T08:47:40.402Z,94058.21
2024-03-05T08:51:19.078Z,94059.89
2024-03-05T08:54:22.167Z,94060.06
2024-03-05T08:57:13.495Z,94054.98
2024-03-05T09:00:16.553Z,94061.54
2024-03-05T09:12:35.326Z,94051.41
2024-03-05T09:17:14.384Z,94046.05
2024-03-05T09:24:45.623Z,94049.18
2024-03-05T09:28:55.760Z,94048.52
2024-03-05T09:33:25.504Z,94044.85
2024-03-05T09:37:35.321Z,94042.02
2024-03-05T09:45:09.694Z,94043.10
2024-03-05T09:48:34.087Z,94044.80
2024-03-05T10:03:02.292Z,94030.73
2024-03-05T10:05:41.490Z,94026.17
2024-03-05T10:08:19.862Z,94017.74
2024-03-05T10:15:00.627Z,94017.69
2024-03-05T10:18:15.528Z,94019.17
2024-03-05T10:20:47.382Z,94016.96
2024-03-05T10:23:30.844Z,94016.96
2024-03-05T10:26:19.139Z,94013.27
2024-03-05T10:29:04.342Z,94011.02
2024-03-05T10:32:07.529Z,94013.35
2024-03-05T10:34:47.620Z,94010.45
2024-03-05T10:37:19.147Z,94004.48
2024-03-05T10:39:53.865Z,94003.65
2024-03-05T10:42:26.403Z,93998.70
2024-03-05T10:44:54.666Z,93998.40
2024-03-05T10:47:25.076Z,93997.41
2024-03-05T10:50:00.667Z,93992.17
2024-03-05T10:53:17.062Z,93995.37
2024-03-05T10:56:15.132Z,93998.38
2024-03-05T10:59:02.458Z,93994.20
2024-03-05T11:01:55.119Z,93989.39
2024-03-05T11:04:58.033Z,93989.78
2024-03-05T11:08:46.679Z,93990.59
2024-03-05T11:11:32.052Z,93989.58
2024-03-05T11:14:22.041Z,93980.52
2024-03-05T11:17:34.166Z,93980.69
2024-03-05T11:20:41.046Z,93977.11
2024-03-05T11:23:14.184Z,93976.69
2024-03-05T11:25:56.063Z,93976.38
2024-03-05T11:28:29.298Z,93975.45
2024-03-05T11:31:18.649Z,93975.44
2024-03-05T11:34:12.834Z,93972.29
2024-03-05T11:36:40.910Z,93973.92
2024-03-05T11:39:18.215Z,93974.48
2024-03-05T11:41:46.857Z,93972.50
2024-03-05T11:44:14.670Z,93972.39
2024-03-05T11:46:48.999Z,93970.92
2024-03-05T11:49:17.515Z,93968.73
2024-03-05T11:51:46.604Z,93965.56
2024-03-05T11:54:21.708Z,93961.27
2024-03-05T11:56:58.784Z,93960.31
2024-03-05T11:59:43.994Z,93952.55
2024-03-05T12:02:18.242Z,93953.08
2024-03-05T12:04:48.084Z,93949.27
2024-03-05T12:07:15.466Z,93944.18
2024-03-05T12:09:43.987Z,93947.02
2024-03-05T12:12:13.476Z,93939.94
2024-03-05T12:14:49.783Z,93944.54
2024-03-05T12:17:18.923Z,93944.44
2024-03-05T12:19:47.286Z,93947.34
2024-03-05T12:22:17.072Z,93947.28
2024-03-05T12:24:44.059Z,93946.20
2024-03-05T12:27:11.844Z,93940.59
2024-03-05T12:29:40.873Z,93941.23
2024-03-05T12:32:09.614Z,93937.32
2024-03-05T12:34:37.020Z,93936.22
2024-03-05T12:37:08.550Z,93935.52
2024-03-05T12:39:39.395Z,93936.55
2024-03-05T12:42:10.230Z,93938.05
2024-03-05T12:44:37.623Z,93935.86
2024-03-05T12:47:05.936Z,93935.39
2024-03-05T12:49:36.477Z,93934.88
2024-03-05T12:52:08.994Z,93941.14
2024-03-05T12:54:36.330Z,93941.86
2024-03-05T12:57:08.475Z,93937.79
2024-03-05T12:59:35.215Z,93937.39
2024-03-05T13:02:03.672Z,93936.86
2024-03-05T13:04:30.866Z,93935.43
2024-03-05T13:06:58.039Z,93938.89
2024-03-05T13:09:24.874Z,93937.95
2024-03-05T13:11:52.386Z,93937.58
2024-03-05T13:14:23.176Z,93933.98
2024-03-05T13:16:52.935Z,93930.66
2024-03-05T13:19:22.535Z,93930.75
2024-03-05T13:21:50.197Z,93927.67
2024-03-05T13:24:17.003Z,93928.54
2024-03-05T13:26:49.047Z,93929.02
2024-03-05T13:29:16.823Z,93925.83
2024-03-05T13:31:43.853Z,93925.35
2024-03-05T13:34:11.337Z,93921.66
2024-03-05T13:36:40.276Z,93921.89
2024-03-05T13:39:09.725Z,93924.34
2024-03-05T13:41:40.771Z,93926.80
2024-03-05T13:44:09.293Z,93928.55
2024-03-05T13:46:40.012Z,93925.08
2024-03-05T13:49:11.804Z,93923.02
2024-03-05T13:51:38.714Z,93924.04
2024-03-05T13:54:06.861Z,93924.98
2024-03-05T13:56:33.647Z,93926.73
2024-03-05T13:59:01.750Z,93928.20
2024-03-05T14:01:29.435Z,93931.44
2024-03-05T14:03:56.639Z,93934.21
2024-03-05T14:06:24.926Z,93942.73
2024-03-05T14:08:52.318Z,93944.75
2024-03-05T14:11:19.395Z,93947.80
2024-03-05T14:13:46.567Z,93943.16
2024-03-05T14:16:18.412Z,93942.77
2024-03-05T14:18:45.195Z,93943.88
2024-03-05T14:21:12.064Z,93947.86
2024-03-05T14:23:40.281Z,93948.76
2024-03-05T14:26:09.019Z,93952.23
2024-03-05T14:28:35.856Z,93953.27
2024-03-05T14:31:03.826Z,93955.56
2024-03-05T14:33:30.663Z,93957.80
2024-03-05T14:35:57.833Z,93956.91
2024-03-05T14:38:25.331Z,93962.39
2024-03-05T14:40:54.718Z,93961.64
2024-03-05T14:43:25.103Z,93964.34
2024-03-05T14:45:54.124Z,93966.98
2024-03-05T14:48:20.930Z,93970.14
2024-03-05T14:50:48.904Z,93974.57
2024-03-05T14:53:15.762Z,93978.95
2024-03-05T14:55:42.932Z,93984.79
2024-03-05T14:58:09.761Z,93982.97
2024-03-05T15:00:36.998Z,93983.56
2024-03-05T15:03:03.866Z,93984.94
2024-03-05T15:05:31.734Z,93984.64
2024-03-05T15:07:58.559Z,93986.11
2024-03-05T15:10:28.805Z,93986.59
2024-03-05T15:12:55.778Z,93990.24
2024-03-05T15:15:24.038Z,93991.89
2024-03-05T15:17:51.177Z,93996.38
2024-03-05T15:20:18.950Z,93996.92
2024-03-05T15:22:50.762Z,93999.62
2024-03-05T15:25:20.598Z,94002.27
2024-03-05T15:27:52.877Z,94010.13
2024-03-05T15:30:24.562Z,94013.11
2024-03-05T15:32:51.531Z,94015.69
2024-03-05T15:35:20.993Z,94019.98
2024-03-05T15:37:49.078Z,94021.77
2024-03-05T15:40:21.260Z,94024.36
2024-03-05T15:42:57.959Z,94023.76
2024-03-05T15:45:27.798Z,94026.54
2024-03-05T15:47:54.770Z,94033.83
2024-03-05T15:50:24.355Z,94038.75
2024-03-05T15:52:54.622Z,94038.44
2024-03-05T15:55:28.250Z,94040.33
2024-03-05T15:58:03.417Z,94046.97
2024-03-05T16:00:36.688Z,94051.15
2024-03-05T16:03:06.819Z,94050.73
2024-03-05T16:05:43.439Z,94057.83
2024-03-05T16:10:49.341Z,94063.73
2024-03-05T16:13:16.802Z,94068.80
2024-03-05T16:15:46.264Z,94070.51
2024-03-05T16:18:16.732Z,94075.25
2024-03-05T16:20:43.896Z,94080.37
2024-03-05T16:23:11.706Z,94080.52
2024-03-05T16:25:39.955Z,94084.79
2024-03-05T16:28:09.798Z,94084.54
2024-03-05T16:30:37.812Z,94089.65
2024-03-05T16:33:05.597Z,94090.05
2024-03-05T16:35:35.648Z,94098.61
2024-03-05T16:38:06.417Z,94104.30
2024-03-05T16:40:37.780Z,94112.24
2024-03-05T16:43:05.799Z,94121.88
2024-03-05T16:45:32.879Z,94127.31
2024-03-05T16:48:00.477Z,94134.20
2024-03-05T16:50:29.931Z,94137.47
2024-03-05T16:52:58.218Z,94139.31
2024-03-05T16:55:29.435Z,94144.61
2024-03-05T16:57:59.328Z,94139.27
2024-03-05T17:00:31.239Z,94138.09
2024-03-05T17:03:19.147Z,94141.20
2024-03-05T17:05:51.383Z,94147.83
2024-03-05T17:08:21.918Z,94149.59
2024-03-05T17:10:51.318Z,94152.18
2024-03-05T17:13:19.435Z,94154.41
2024-03-05T17:15:53.854Z,94154.20
2024-03-05T17:18:23.982Z,94153.92
2024-03-05T17:20:51.486Z,94149.66
2024-03-05T17:23:23.180Z,94147.98
2024-03-05T17:25:52.081Z,94152.95
2024-03-05T17:28:18.872Z,94157.70
2024-03-05T17:30:46.553Z,94158.84
2024-03-05T17:33:15.546Z,94157.02
2024-03-05T17:35:43.153Z,94161.42
2024-03-05T17:38:12.766Z,94162.29
2024-03-05T17:40:39.455Z,94163.99
2024-03-05T17:43:06.285Z,94168.61
2024-03-05T17:45:33.448Z,94165.96
2024-03-05T17:48:05.295Z,94166.88
2024-03-05T17:50:32.487Z,94167.50
2024-03-05T17:52:59.266Z,94170.80
2024-03-05T17:55:26.119Z,94173.64
2024-03-05T17:57:53.036Z,94176.38
2024-03-05T18:00:27.157Z,94180.80
2024-03-05T18:02:55.142Z,94184.44
2024-03-05T18:05:28.272Z,94183.17
2024-03-05T18:07:56.638Z,94180.65
2024-03-05T18:10:25.139Z,94183.66
2024-03-05T18:12:52.964Z,94193.75
2024-03-05T18:15:21.258Z,94199.34
2024-03-05T18:17:50.068Z,94195.91
2024-03-05T18:20:18.669Z,94198.17
2024-03-05T18:22:46.486Z,94196.04
2024-03-05T18:25:20.893Z,94199.19
2024-03-05T18:27:56.304Z,94201.86
2024-03-05T18:30:28.692Z,94203.61
2024-03-05T18:32:55.965Z,94209.46
2024-03-05T18:35:25.062Z,94213.23
2024-03-05T18:37:52.930Z,94219.36
2024-03-05T18:40:21.749Z,94222.34
2024-03-05T18:42:50.915Z,94224.66
2024-03-05T18:45:19.292Z,94226.23
2024-03-05T18:47:58.423Z,94228.43
2024-03-05T18:50:30.331Z,94229.63
2024-03-05T18:52:57.432Z,94228.27
2024-03-05T18:55:29.178Z,94231.48
2024-03-05T18:57:56.806Z,94233.65
2024-03-05T19:00:23.867Z,94237.80
2024-03-05T19:02:51.246Z,94241.14
2024-03-05T19:05:19.212Z,94251.66
2024-03-05T19:07:47.301Z,94251.98
2024-03-05T19:10:16.510Z,94253.74
2024-03-05T19:12:43.907Z,94257.65
2024-03-05T19:15:13.351Z,94260.67
2024-03-05T19:17:43.463Z,94258.67
2024-03-05T19:20:13.762Z,94261.23
2024-03-05T19:22:41.182Z,94263.61
2024-03-05T19:25:11.160Z,94261.89
2024-03-05T19:27:42.062Z,94262.42
2024-03-05T19:30:16.462Z,94269.39
2024-03-05T19:32:43.767Z,94270.58
2024-03-05T19:35:14.359Z,94271.73
2024-03-05T19:37:45.536Z,94273.13
2024-03-05T19:40:16.239Z,94279.04
2024-03-05T19:42:45.358Z,94282.09
2024-03-05T19:45:12.558Z,94282.83
2024-03-05T19:47:39.765Z,94278.55
2024-03-05T19:50:07.206Z,94280.69
2024-03-05T19:52:35.641Z,94278.45
2024-03-05T19:55:02.868Z,94282.95
2024-03-05T19:57:29.684Z,94283.83
2024-03-05T19:59:59.670Z,94282.73
2024-03-05T20:02:28.632Z,94286.56
2024-03-05T20:04:55.971Z,94282.58
2024-03-05T20:07:22.678Z,94283.09
2024-03-05T20:09:49.571Z,94285.41
2024-03-05T20:12:18.059Z,94285.27
2024-03-05T20:14:44.905Z,94284.95
2024-03-05T20:17:12.062Z,94285.13
2024-03-05T20:19:39.990Z,94282.58
2024-03-05T20:22:07.926Z,94284.31
2024-03-05T20:24:35.423Z,94286.48
2024-03-05T20:27:02.774Z,94285.22
2024-03-05T20:29:30.462Z,94288.96
2024-03-05T20:31:57.792Z,94287.94
2024-03-05T20:34:26.098Z,94288.20
2024-03-05T20:36:52.942Z,94285.78
2024-03-05T20:39:19.666Z,94284.64
2024-03-05T20:41:46.702Z,94286.55
2024-03-05T20:44:17.322Z,94286.30
2024-03-05T20:46:44.467Z,94286.80
2024-03-05T20:49:11.381Z,94292.34
2024-03-05T20:51:38.842Z,94288.73
2024-03-05T20:54:05.602Z,94293.64
2024-03-05T20:56:32.359Z,94295.05
2024-03-05T20:58:59.246Z,94294.33
2024-03-05T21:01:26.172Z,94289.06
2024-03-05T21:03:53.488Z,94291.01
2024-03-05T21:06:20.275Z,94290.78
2024-03-05T21:08:48.080Z,94292.58
2024-03-05T21:11:15.581Z,94294.50
2024-03-05T21:13:42.801Z,94292.41
2024-03-05T21:16:11.125Z,94291.23
2024-03-05T21:18:38.242Z,94290.61
2024-03-05T21:21:05.938Z,94295.12
2024-03-05T21:23:34.240Z,94291.59
2024-03-05T21:26:13.891Z,94298.59
2024-03-05T21:28:51.662Z,94296.25
2024-03-05T21:31:18.807Z,94294.70
2024-03-05T21:33:45.771Z,94296.45
2024-03-05T21:36:12.774Z,94296.89
2024-03-05T21:38:39.567Z,94300.58
2024-03-05T21:41:09.212Z,94298.45
2024-03-05T21:43:35.983Z,94298.39
2024-03-05T21:46:04.358Z,94300.12
2024-03-05T21:48:31.174Z,94297.95
2024-03-05T21:51:06.272Z,94298.76
2024-03-05T21:53:36.941Z,94302.28
2024-03-05T21:56:03.994Z,94301.64
2024-03-05T21:58:30.859Z,94302.61
2024-03-05T22:00:57.676Z,94300.55
2024-03-05T22:03:24.516Z,94306.02
2024-03-05T22:05:51.688Z,94305.73
2024-03-05T22:08:18.740Z,94303.99
2024-03-05T22:10:46.177Z,94301.81
2024-03-05T22:13:13.260Z,94305.00
2024-03-05T22:15:40.388Z,94310.51
2024-03-05T22:18:14.322Z,94311.97
2024-03-05T22:20:44.187Z,94317.50
2024-03-05T22:23:24.340Z,94319.33
2024-03-05T22:25:51.361Z,94319.90
2024-03-05T22:28:27.754Z,94322.94
2024-03-05T22:30:55.913Z,94323.65
2024-03-05T22:33:28.968Z,94326.94
2024-03-05T22:35:56.433Z,94327.76
2024-03-05T22:38:33.081Z,94331.90
2024-03-05T22:41:00.433Z,94336.13
2024-03-05T22:43:27.788Z,94333.22
2024-03-05T22:45:54.784Z,94339.93
2024-03-05T22:48:31.674Z,94343.87
2024-03-05T22:51:22.265Z,94343.27
2024-03-05T22:54:01.598Z,94349.60
2024-03-05T22:56:28.397Z,94349.48
2024-03-05T22:58:55.342Z,94352.11
2024-03-05T23:01:22.135Z,94355.35
2024-03-05T23:03:49.289Z,94352.11
2024-03-05T23:06:21.083Z,94353.61
2024-03-05T23:08:51.867Z,94362.45
2024-03-05T23:11:18.989Z,94365.35
2024-03-05T23:13:45.961Z,94366.09
2024-03-05T23:16:13.903Z,94372.24
2024-03-05T23:18:41.429Z,94372.25
2024-03-05T23:21:10.171Z,94369.80
2024-03-05T23:23:38.604Z,94366.07
2024-03-05T23:26:06.911Z,94370.13
2024-03-05T23:28:33.753Z,94373.20
2024-03-05T23:31:00.553Z,94373.89
2024-03-05T23:33:27.298Z,94375.00
2024-03-05T23:35:53.967Z,94380.03
2024-03-05T23:38:21.411Z,94381.23
2024-03-05T23:40:48.264Z,94380.84
2024-03-05T23:43:15.113Z,94382.77
2024-03-05T23:45:41.942Z,94382.48
2024-03-05T23:48:09.793Z,94378.41
2024-03-05T23:50:36.679Z,94374.20
2024-03-05T23:53:03.722Z,94370.05
2024-03-05T23:55:30.925Z,94366.45
2024-03-05T23:57:57.690Z,94370.75
